KMPV 251751Z AUTO 14004KT 10SM FEW050 22/10 A3038 RMK AO2 SLP286 T02170100 10222 20111 56018